Eishin Maru No.18 — JD2146 — position and weather

sailwx.info

Track history (hours):
 
Tides and Currents Weather Stations Pressure Air Temp Water Temp Dewpoint Dewpoint Depression Visibility Wind Speed Wind Dir Waves Ship Positions

Eishin Maru No.18

Last reported at 2018-Jun-18 10:21 UTC. Time now 2018-Jun-25 17:38 UTC.
Position N 35°11' E 139°45'.

Length 104 m; draft 6.4 m.

Type: Tanker. MMSI: 431501832.

Date/timePositionNaut miles runAvg speedWind from/ knotsBaromVisibWave heightAir tempDewpointWater temp
2018-Jun-18 10:21N 35°11' E 139°45'512.6
2018-Jun-18 09:57N 35°15' E 139°46'512.1
2018-Jun-18 09:31N 35°20' E 139°43'611.9
2018-Jun-18 09:01N 35°26' E 139°45'510.0
2018-Jun-18 08:30N 35°30' E 139°48'2 3.3
2018-Jun-18 08:01N 35°31' E 139°46'0 0.0
2018-Jun-18 07:16N 35°31' E 139°46'0 0.0
2018-Jun-18 06:52N 35°31' E 139°46'0 0.0
2018-Jun-18 06:10N 35°31' E 139°46'0 0.0
2018-Jun-18 05:58N 35°31' E 139°46'0 0.0
2018-Jun-18 05:22N 35°31' E 139°46'0 0.0
2018-Jun-18 04:55N 35°31' E 139°46'0 0.0
2018-Jun-18 04:28N 35°31' E 139°46'0 0.0
2018-Jun-18 03:58N 35°31' E 139°46'0 0.0
2018-Jun-18 03:25N 35°31' E 139°46'0 0.0
2018-Jun-18 02:52N 35°31' E 139°46'0 0.0
2018-Jun-18 02:28N 35°31' E 139°46'0 0.0
2018-Jun-18 01:40N 35°31' E 139°46'0 0.0
2018-Jun-18 01:28N 35°31' E 139°46'0 0.0
2018-Jun-18 00:58N 35°31' E 139°46'0 0.0
2018-Jun-18 00:28N 35°31' E 139°46'0 0.0
2018-Jun-17 23:58N 35°31' E 139°46'0 0.0
2018-Jun-17 23:28N 35°31' E 139°46'0 0.7
2018-Jun-17 23:00N 35°31' E 139°46'4 7.6
2018-Jun-17 22:30N 35°29' E 139°42'3 5.2
2018-Jun-17 22:00N 35°27' E 139°44'4 7.5
2018-Jun-17 21:30N 35°23' E 139°44'1 1.4
2018-Jun-17 20:59N 35°22' E 139°44'0 0.1
2018-Jun-17 20:29N 35°22' E 139°44'0 0.0
2018-Jun-17 19:59N 35°22' E 139°44'0 0.0
2018-Jun-17 19:29N 35°22' E 139°44'0 0.0
2018-Jun-17 18:59N 35°22' E 139°44'0 0.0
2018-Jun-17 18:29N 35°22' E 139°44'0 0.1
2018-Jun-17 17:59N 35°22' E 139°44'0 0.0
2018-Jun-17 17:29N 35°22' E 139°44'0 0.0
2018-Jun-17 16:59N 35°22' E 139°44'0 0.0
2018-Jun-17 16:29N 35°22' E 139°44'0 0.0
2018-Jun-17 15:59N 35°22' E 139°44'0 0.0
2018-Jun-17 15:29N 35°22' E 139°44'0 0.0
2018-Jun-17 14:59N 35°22' E 139°44'0 0.0
2018-Jun-17 14:29N 35°22' E 139°44'0 0.0
2018-Jun-17 13:59N 35°22' E 139°44'0 0.0
2018-Jun-17 13:29N 35°22' E 139°44'0 0.0
2018-Jun-17 12:59N 35°22' E 139°44'0 0.0
2018-Jun-17 12:29N 35°22' E 139°44'0 0.0
2018-Jun-17 11:59N 35°22' E 139°44'0 0.0
2018-Jun-17 11:29N 35°22' E 139°44'0 0.0
2018-Jun-17 10:59N 35°22' E 139°44'0 0.1
2018-Jun-17 10:29N 35°22' E 139°44'0 0.0
2018-Jun-17 09:59N 35°22' E 139°44'0 0.1
2018-Jun-17 09:29N 35°22' E 139°44'0 0.0
2018-Jun-17 08:59N 35°22' E 139°44'0 0.1
2018-Jun-17 08:29N 35°22' E 139°44'0 0.0
2018-Jun-17 07:59N 35°22' E 139°44'0 0.0
2018-Jun-17 07:29N 35°22' E 139°44'0 0.0
2018-Jun-17 06:59N 35°22' E 139°44'0 0.8
2018-Jun-17 06:30N 35°22' E 139°44'612.2
2018-Jun-17 06:00N 35°16' E 139°46'612.9
2018-Jun-17 05:30N 35°10' E 139°46'  
2018-Jun-12 08:46N 35°10' E 139°45'413.0
2018-Jun-12 08:26N 35°15' E 139°46'512.8
2018-Jun-12 08:00N 35°19' E 139°43'611.8
2018-Jun-12 07:30N 35°25' E 139°44'510.6
2018-Jun-12 07:00N 35°30' E 139°48'2 4.9
2018-Jun-12 06:30N 35°32' E 139°46'0 0.0
2018-Jun-12 05:58N 35°32' E 139°46'0 0.0
2018-Jun-12 05:28N 35°32' E 139°46'0 0.0
2018-Jun-12 04:52N 35°32' E 139°46'0 0.0
2018-Jun-12 04:28N 35°32' E 139°46'0 0.0
2018-Jun-12 03:58N 35°32' E 139°46'0 0.0
2018-Jun-12 03:28N 35°32' E 139°46'0 0.0
2018-Jun-12 02:55N 35°32' E 139°46'0 0.0
2018-Jun-12 02:28N 35°32' E 139°46'0 0.0
2018-Jun-12 01:58N 35°32' E 139°46'0 0.0
2018-Jun-12 01:28N 35°32' E 139°46'0 0.0
2018-Jun-12 00:49N 35°32' E 139°46'0 0.0
2018-Jun-12 00:28N 35°32' E 139°46'0 0.0
2018-Jun-11 23:55N 35°32' E 139°46'0 0.0
2018-Jun-11 23:28N 35°32' E 139°46'0 0.0
2018-Jun-11 22:52N 35°32' E 139°46'0 0.6
2018-Jun-11 22:30N 35°31' E 139°46'4 7.0
2018-Jun-11 22:00N 35°29' E 139°42'3 6.8
2018-Jun-11 21:31N 35°26' E 139°44'2 3.3
2018-Jun-11 20:59N 35°24' E 139°45'0 0.0
2018-Jun-11 20:29N 35°24' E 139°45'0 0.1
2018-Jun-11 19:59N 35°24' E 139°45'0 0.0
2018-Jun-11 19:29N 35°24' E 139°45'0 0.0
2018-Jun-11 18:59N 35°24' E 139°45'0 0.1
2018-Jun-11 18:26N 35°24' E 139°45'0 0.0
2018-Jun-11 17:59N 35°24' E 139°45'0 0.0
2018-Jun-11 17:29N 35°24' E 139°45'0 0.0
2018-Jun-11 16:59N 35°24' E 139°45'0 0.0
2018-Jun-11 16:29N 35°24' E 139°45'0 0.0
2018-Jun-11 15:59N 35°24' E 139°45'0 0.0
2018-Jun-11 15:29N 35°24' E 139°45'0 0.0
2018-Jun-11 14:59N 35°24' E 139°45'0 0.0
2018-Jun-11 14:29N 35°24' E 139°45'0 0.0
2018-Jun-11 13:59N 35°24' E 139°45'0 0.1
2018-Jun-11 13:28N 35°24' E 139°45'0 0.0
2018-Jun-11 12:55N 35°24' E 139°45'0 0.0
2018-Jun-11 12:28N 35°24' E 139°45'0 0.0
2018-Jun-11 11:58N 35°24' E 139°45'0 0.0
2018-Jun-11 11:28N 35°24' E 139°45'0 0.0
2018-Jun-11 10:58N 35°24' E 139°45'0 0.1
2018-Jun-11 10:28N 35°24' E 139°45'0 0.1
2018-Jun-11 09:58N 35°24' E 139°45'0 0.0
2018-Jun-11 09:19N 35°24' E 139°45'0 0.1
2018-Jun-11 08:58N 35°24' E 139°45'0 0.0
2018-Jun-11 08:28N 35°24' E 139°45'0 0.0
2018-Jun-11 07:58N 35°24' E 139°45'0 0.0
2018-Jun-11 07:28N 35°24' E 139°45'0 0.0
2018-Jun-11 06:58N 35°24' E 139°45'0 0.1
2018-Jun-11 06:30N 35°24' E 139°45'611.4
2018-Jun-11 06:00N 35°30' E 139°48'3 5.4
2018-Jun-11 05:31N 35°32' E 139°46'0 0.0
2018-Jun-11 02:20N 35°32' E 139°46'0 0.0
2018-Jun-11 01:44N 35°32' E 139°46'0 0.0
2018-Jun-11 01:23N 35°32' E 139°46'0 0.0
2018-Jun-11 00:56N 35°32' E 139°46'0 0.0
2018-Jun-11 00:14N 35°32' E 139°46'0 0.0
2018-Jun-10 23:59N 35°32' E 139°46'0 0.0
2018-Jun-10 23:29N 35°32' E 139°46'0 0.0
2018-Jun-10 22:53N 35°32' E 139°46'0 0.5
2018-Jun-10 22:30N 35°31' E 139°46'4 7.4
2018-Jun-10 22:00N 35°29' E 139°42'4 7.3
2018-Jun-10 21:31N 35°26' E 139°45'713.6
2018-Jun-10 21:00N 35°30' E 139°53'1 2.4
2018-Jun-10 20:27N 35°30' E 139°54'0 0.0
2018-Jun-10 20:00N 35°30' E 139°54'0 0.0
2018-Jun-10 19:27N 35°30' E 139°54'0 0.0
2018-Jun-10 19:00N 35°30' E 139°54'0 0.0
2018-Jun-10 18:30N 35°30' E 139°54'0 0.0
2018-Jun-10 18:00N 35°30' E 139°54'0 0.0
2018-Jun-10 17:30N 35°30' E 139°54'0 0.0
2018-Jun-10 16:54N 35°30' E 139°54'0 0.0
2018-Jun-10 16:30N 35°30' E 139°54'0 0.0
2018-Jun-10 16:00N 35°30' E 139°54'0 0.0
2018-Jun-10 15:30N 35°30' E 139°54'3 5.9
2018-Jun-10 15:00N 35°32' E 139°57'4 8.0
2018-Jun-10 14:27N 35°31' E 140°02'2 0.2
2018-Jun-10 06:55N 35°31' E 140°01'2 3.1
2018-Jun-10 06:19N 35°31' E 139°58'0 0.1
2018-Jun-10 04:51N 35°31' E 139°58'0 0.0
2018-Jun-10 04:30N 35°31' E 139°58'0 0.0
2018-Jun-10 04:00N 35°31' E 139°58'0 0.0
2018-Jun-10 03:27N 35°31' E 139°58'0 0.0
2018-Jun-10 03:00N 35°31' E 139°58'0 0.0
2018-Jun-10 02:30N 35°31' E 139°58'0 0.0
2018-Jun-10 02:00N 35°31' E 139°58'0 0.0
2018-Jun-10 00:48N 35°31' E 139°58'0 0.0
2018-Jun-10 00:18N 35°31' E 139°58'0 0.0
2018-Jun-09 23:54N 35°31' E 139°58'0 0.0
2018-Jun-09 22:54N 35°31' E 139°58'0 0.1
2018-Jun-09 22:30N 35°31' E 139°58'5 9.4
2018-Jun-09 22:00N 35°30' E 139°53'4 8.6
2018-Jun-09 21:30N 35°30' E 139°47'2 4.1
2018-Jun-09 21:00N 35°32' E 139°46'0 0.0
2018-Jun-09 20:28N 35°32' E 139°46'0 0.0
2018-Jun-09 19:55N 35°32' E 139°46'0 0.0
2018-Jun-09 19:25N 35°32' E 139°46'0 0.0
2018-Jun-09 18:58N 35°32' E 139°46'0 0.0
2018-Jun-09 18:25N 35°32' E 139°46'0 0.0
2018-Jun-09 17:58N 35°32' E 139°46'0 0.0
2018-Jun-09 17:25N 35°32' E 139°46'0 0.0
2018-Jun-09 16:58N 35°32' E 139°46'0 0.0
2018-Jun-09 16:22N 35°32' E 139°46'0 0.0
2018-Jun-09 15:58N 35°32' E 139°46'0 0.0
2018-Jun-09 14:37N 35°32' E 139°46'0 0.1
2018-Jun-09 14:25N 35°32' E 139°46'0 0.0
2018-Jun-09 13:34N 35°32' E 139°46'0 0.0
2018-Jun-09 13:25N 35°32' E 139°46'0 0.0
2018-Jun-09 12:58N 35°32' E 139°46'0 0.0
2018-Jun-09 12:28N 35°32' E 139°46'0 0.0
2018-Jun-09 11:55N 35°32' E 139°46'0 0.0
2018-Jun-09 11:25N 35°32' E 139°46'0 0.0
2018-Jun-09 10:55N 35°32' E 139°46'0 0.0
2018-Jun-09 10:28N 35°32' E 139°46'0 0.0
2018-Jun-09 09:58N 35°32' E 139°46'0 0.0
2018-Jun-09 09:28N 35°32' E 139°46'0 0.2
2018-Jun-09 08:33N 35°31' E 139°46'0 3.0
2018-Jun-09 08:31N 35°31' E 139°46'4 7.0
2018-Jun-09 08:00N 35°29' E 139°42'4 7.1
2018-Jun-09 07:30N 35°27' E 139°46'612.7
2018-Jun-09 07:00N 35°30' E 139°52'712.5
2018-Jun-09 06:29N 35°31' E 140°00'2 3.7
2018-Jun-09 06:00N 35°31' E 140°02'0 0.0
2018-Jun-08 21:53N 35°31' E 140°02'3 6.9
2018-Jun-08 21:30N 35°31' E 139°59'0 0.3
2018-Jun-08 20:47N 35°31' E 139°59'0 0.0
2018-Jun-08 20:29N 35°31' E 139°59'0 0.0
2018-Jun-08 19:59N 35°31' E 139°59'0 0.0
2018-Jun-08 19:29N 35°31' E 139°59'0 0.0
2018-Jun-08 18:59N 35°31' E 139°59'0 0.0
2018-Jun-08 18:29N 35°31' E 139°59'0 0.0
2018-Jun-08 17:59N 35°31' E 139°59'0 0.0
2018-Jun-08 17:29N 35°31' E 139°59'2 4.3
2018-Jun-08 17:00N 35°30' E 139°57'714.6
2018-Jun-08 16:30N 35°27' E 139°49'713.2
2018-Jun-08 16:00N 35°21' E 139°45'612.1
2018-Jun-08 15:30N 35°15' E 139°47'714.2
2018-Jun-08 14:59N 35°08' E 139°46'714.4
2018-Jun-08 14:30N 35°02' E 139°41'  
Track history (hours):
 
Tides and Currents Weather Stations Pressure Air Temp Water Temp Dewpoint Dewpoint Depression Visibility Wind Speed Wind Dir Waves Ship Positions

Eishin Maru No.18

Last reported at 2018-Jun-18 10:21 UTC. Time now 2018-Jun-25 17:38 UTC.
Position N 35°11' E 139°45'.

Length 104 m; draft 6.4 m.

Type: Tanker. MMSI: 431501832.

Date/timePositionNaut miles runAvg speedWind from/ knotsBaromVisibWave heightAir tempDewpointWater temp
2018-Jun-18 10:21N 35°11' E 139°45'512.6
2018-Jun-18 09:57N 35°15' E 139°46'512.1
2018-Jun-18 09:31N 35°20' E 139°43'611.9
2018-Jun-18 09:01N 35°26' E 139°45'510.0
2018-Jun-18 08:30N 35°30' E 139°48'2 3.3
2018-Jun-18 08:01N 35°31' E 139°46'0 0.0
2018-Jun-18 07:16N 35°31' E 139°46'0 0.0
2018-Jun-18 06:52N 35°31' E 139°46'0 0.0
2018-Jun-18 06:10N 35°31' E 139°46'0 0.0
2018-Jun-18 05:58N 35°31' E 139°46'0 0.0
2018-Jun-18 05:22N 35°31' E 139°46'0 0.0
2018-Jun-18 04:55N 35°31' E 139°46'0 0.0
2018-Jun-18 04:28N 35°31' E 139°46'0 0.0
2018-Jun-18 03:58N 35°31' E 139°46'0 0.0
2018-Jun-18 03:25N 35°31' E 139°46'0 0.0
2018-Jun-18 02:52N 35°31' E 139°46'0 0.0
2018-Jun-18 02:28N 35°31' E 139°46'0 0.0
2018-Jun-18 01:40N 35°31' E 139°46'0 0.0
2018-Jun-18 01:28N 35°31' E 139°46'0 0.0
2018-Jun-18 00:58N 35°31' E 139°46'0 0.0
2018-Jun-18 00:28N 35°31' E 139°46'0 0.0
2018-Jun-17 23:58N 35°31' E 139°46'0 0.0
2018-Jun-17 23:28N 35°31' E 139°46'0 0.7
2018-Jun-17 23:00N 35°31' E 139°46'4 7.6
2018-Jun-17 22:30N 35°29' E 139°42'3 5.2
2018-Jun-17 22:00N 35°27' E 139°44'4 7.5
2018-Jun-17 21:30N 35°23' E 139°44'1 1.4
2018-Jun-17 20:59N 35°22' E 139°44'0 0.1
2018-Jun-17 20:29N 35°22' E 139°44'0 0.0
2018-Jun-17 19:59N 35°22' E 139°44'0 0.0
2018-Jun-17 19:29N 35°22' E 139°44'0 0.0
2018-Jun-17 18:59N 35°22' E 139°44'0 0.0
2018-Jun-17 18:29N 35°22' E 139°44'0 0.1
2018-Jun-17 17:59N 35°22' E 139°44'0 0.0
2018-Jun-17 17:29N 35°22' E 139°44'0 0.0
2018-Jun-17 16:59N 35°22' E 139°44'0 0.0
2018-Jun-17 16:29N 35°22' E 139°44'0 0.0
2018-Jun-17 15:59N 35°22' E 139°44'0 0.0
2018-Jun-17 15:29N 35°22' E 139°44'0 0.0
2018-Jun-17 14:59N 35°22' E 139°44'0 0.0
2018-Jun-17 14:29N 35°22' E 139°44'0 0.0
2018-Jun-17 13:59N 35°22' E 139°44'0 0.0
2018-Jun-17 13:29N 35°22' E 139°44'0 0.0
2018-Jun-17 12:59N 35°22' E 139°44'0 0.0
2018-Jun-17 12:29N 35°22' E 139°44'0 0.0
2018-Jun-17 11:59N 35°22' E 139°44'0 0.0
2018-Jun-17 11:29N 35°22' E 139°44'0 0.0
2018-Jun-17 10:59N 35°22' E 139°44'0 0.1
2018-Jun-17 10:29N 35°22' E 139°44'0 0.0
2018-Jun-17 09:59N 35°22' E 139°44'0 0.1
2018-Jun-17 09:29N 35°22' E 139°44'0 0.0
2018-Jun-17 08:59N 35°22' E 139°44'0 0.1
2018-Jun-17 08:29N 35°22' E 139°44'0 0.0
2018-Jun-17 07:59N 35°22' E 139°44'0 0.0
2018-Jun-17 07:29N 35°22' E 139°44'0 0.0
2018-Jun-17 06:59N 35°22' E 139°44'0 0.8
2018-Jun-17 06:30N 35°22' E 139°44'612.2
2018-Jun-17 06:00N 35°16' E 139°46'612.9
2018-Jun-17 05:30N 35°10' E 139°46'  
2018-Jun-12 08:46N 35°10' E 139°45'413.0
2018-Jun-12 08:26N 35°15' E 139°46'512.8
2018-Jun-12 08:00N 35°19' E 139°43'611.8
2018-Jun-12 07:30N 35°25' E 139°44'510.6
2018-Jun-12 07:00N 35°30' E 139°48'2 4.9
2018-Jun-12 06:30N 35°32' E 139°46'0 0.0
2018-Jun-12 05:58N 35°32' E 139°46'0 0.0
2018-Jun-12 05:28N 35°32' E 139°46'0 0.0
2018-Jun-12 04:52N 35°32' E 139°46'0 0.0
2018-Jun-12 04:28N 35°32' E 139°46'0 0.0
2018-Jun-12 03:58N 35°32' E 139°46'0 0.0
2018-Jun-12 03:28N 35°32' E 139°46'0 0.0
2018-Jun-12 02:55N 35°32' E 139°46'0 0.0
2018-Jun-12 02:28N 35°32' E 139°46'0 0.0
2018-Jun-12 01:58N 35°32' E 139°46'0 0.0
2018-Jun-12 01:28N 35°32' E 139°46'0 0.0
2018-Jun-12 00:49N 35°32' E 139°46'0 0.0
2018-Jun-12 00:28N 35°32' E 139°46'0 0.0
2018-Jun-11 23:55N 35°32' E 139°46'0 0.0
2018-Jun-11 23:28N 35°32' E 139°46'0 0.0
2018-Jun-11 22:52N 35°32' E 139°46'0 0.6
2018-Jun-11 22:30N 35°31' E 139°46'4 7.0
2018-Jun-11 22:00N 35°29' E 139°42'3 6.8
2018-Jun-11 21:31N 35°26' E 139°44'2 3.3
2018-Jun-11 20:59N 35°24' E 139°45'0 0.0
2018-Jun-11 20:29N 35°24' E 139°45'0 0.1
2018-Jun-11 19:59N 35°24' E 139°45'0 0.0
2018-Jun-11 19:29N 35°24' E 139°45'0 0.0
2018-Jun-11 18:59N 35°24' E 139°45'0 0.1
2018-Jun-11 18:26N 35°24' E 139°45'0 0.0
2018-Jun-11 17:59N 35°24' E 139°45'0 0.0
2018-Jun-11 17:29N 35°24' E 139°45'0 0.0
2018-Jun-11 16:59N 35°24' E 139°45'0 0.0
2018-Jun-11 16:29N 35°24' E 139°45'0 0.0
2018-Jun-11 15:59N 35°24' E 139°45'0 0.0
2018-Jun-11 15:29N 35°24' E 139°45'0 0.0
2018-Jun-11 14:59N 35°24' E 139°45'0 0.0
2018-Jun-11 14:29N 35°24' E 139°45'0 0.0
2018-Jun-11 13:59N 35°24' E 139°45'0 0.1
2018-Jun-11 13:28N 35°24' E 139°45'0 0.0
2018-Jun-11 12:55N 35°24' E 139°45'0 0.0
2018-Jun-11 12:28N 35°24' E 139°45'0 0.0
2018-Jun-11 11:58N 35°24' E 139°45'0 0.0
2018-Jun-11 11:28N 35°24' E 139°45'0 0.0
2018-Jun-11 10:58N 35°24' E 139°45'0 0.1
2018-Jun-11 10:28N 35°24' E 139°45'0 0.1
2018-Jun-11 09:58N 35°24' E 139°45'0 0.0
2018-Jun-11 09:19N 35°24' E 139°45'0 0.1
2018-Jun-11 08:58N 35°24' E 139°45'0 0.0
2018-Jun-11 08:28N 35°24' E 139°45'0 0.0
2018-Jun-11 07:58N 35°24' E 139°45'0 0.0
2018-Jun-11 07:28N 35°24' E 139°45'0 0.0
2018-Jun-11 06:58N 35°24' E 139°45'0 0.1
2018-Jun-11 06:30N 35°24' E 139°45'611.4
2018-Jun-11 06:00N 35°30' E 139°48'3 5.4
2018-Jun-11 05:31N 35°32' E 139°46'0 0.0
2018-Jun-11 02:20N 35°32' E 139°46'0 0.0
2018-Jun-11 01:44N 35°32' E 139°46'0 0.0
2018-Jun-11 01:23N 35°32' E 139°46'0 0.0
2018-Jun-11 00:56N 35°32' E 139°46'0 0.0
2018-Jun-11 00:14N 35°32' E 139°46'0 0.0
2018-Jun-10 23:59N 35°32' E 139°46'0 0.0
2018-Jun-10 23:29N 35°32' E 139°46'0 0.0
2018-Jun-10 22:53N 35°32' E 139°46'0 0.5
2018-Jun-10 22:30N 35°31' E 139°46'4 7.4
2018-Jun-10 22:00N 35°29' E 139°42'4 7.3
2018-Jun-10 21:31N 35°26' E 139°45'713.6
2018-Jun-10 21:00N 35°30' E 139°53'1 2.4
2018-Jun-10 20:27N 35°30' E 139°54'0 0.0
2018-Jun-10 20:00N 35°30' E 139°54'0 0.0
2018-Jun-10 19:27N 35°30' E 139°54'0 0.0
2018-Jun-10 19:00N 35°30' E 139°54'0 0.0
2018-Jun-10 18:30N 35°30' E 139°54'0 0.0
2018-Jun-10 18:00N 35°30' E 139°54'0 0.0
2018-Jun-10 17:30N 35°30' E 139°54'0 0.0
2018-Jun-10 16:54N 35°30' E 139°54'0 0.0
2018-Jun-10 16:30N 35°30' E 139°54'0 0.0
2018-Jun-10 16:00N 35°30' E 139°54'0 0.0
2018-Jun-10 15:30N 35°30' E 139°54'3 5.9
2018-Jun-10 15:00N 35°32' E 139°57'4 8.0
2018-Jun-10 14:27N 35°31' E 140°02'2 0.2
2018-Jun-10 06:55N 35°31' E 140°01'2 3.1
2018-Jun-10 06:19N 35°31' E 139°58'0 0.1
2018-Jun-10 04:51N 35°31' E 139°58'0 0.0
2018-Jun-10 04:30N 35°31' E 139°58'0 0.0
2018-Jun-10 04:00N 35°31' E 139°58'0 0.0
2018-Jun-10 03:27N 35°31' E 139°58'0 0.0
2018-Jun-10 03:00N 35°31' E 139°58'0 0.0
2018-Jun-10 02:30N 35°31' E 139°58'0 0.0
2018-Jun-10 02:00N 35°31' E 139°58'0 0.0
2018-Jun-10 00:48N 35°31' E 139°58'0 0.0
2018-Jun-10 00:18N 35°31' E 139°58'0 0.0
2018-Jun-09 23:54N 35°31' E 139°58'0 0.0
2018-Jun-09 22:54N 35°31' E 139°58'0 0.1
2018-Jun-09 22:30N 35°31' E 139°58'5 9.4
2018-Jun-09 22:00N 35°30' E 139°53'4 8.6
2018-Jun-09 21:30N 35°30' E 139°47'2 4.1
2018-Jun-09 21:00N 35°32' E 139°46'0 0.0
2018-Jun-09 20:28N 35°32' E 139°46'0 0.0
2018-Jun-09 19:55N 35°32' E 139°46'0 0.0
2018-Jun-09 19:25N 35°32' E 139°46'0 0.0
2018-Jun-09 18:58N 35°32' E 139°46'0 0.0
2018-Jun-09 18:25N 35°32' E 139°46'0 0.0
2018-Jun-09 17:58N 35°32' E 139°46'0 0.0
2018-Jun-09 17:25N 35°32' E 139°46'0 0.0
2018-Jun-09 16:58N 35°32' E 139°46'0 0.0
2018-Jun-09 16:22N 35°32' E 139°46'0 0.0
2018-Jun-09 15:58N 35°32' E 139°46'0 0.0
2018-Jun-09 14:37N 35°32' E 139°46'0 0.1
2018-Jun-09 14:25N 35°32' E 139°46'0 0.0
2018-Jun-09 13:34N 35°32' E 139°46'0 0.0
2018-Jun-09 13:25N 35°32' E 139°46'0 0.0
2018-Jun-09 12:58N 35°32' E 139°46'0 0.0
2018-Jun-09 12:28N 35°32' E 139°46'0 0.0
2018-Jun-09 11:55N 35°32' E 139°46'0 0.0
2018-Jun-09 11:25N 35°32' E 139°46'0 0.0
2018-Jun-09 10:55N 35°32' E 139°46'0 0.0
2018-Jun-09 10:28N 35°32' E 139°46'0 0.0
2018-Jun-09 09:58N 35°32' E 139°46'0 0.0
2018-Jun-09 09:28N 35°32' E 139°46'0 0.2
2018-Jun-09 08:33N 35°31' E 139°46'0 3.0
2018-Jun-09 08:31N 35°31' E 139°46'4 7.0
2018-Jun-09 08:00N 35°29' E 139°42'4 7.1
2018-Jun-09 07:30N 35°27' E 139°46'612.7
2018-Jun-09 07:00N 35°30' E 139°52'712.5
2018-Jun-09 06:29N 35°31' E 140°00'2 3.7
2018-Jun-09 06:00N 35°31' E 140°02'0 0.0
2018-Jun-08 21:53N 35°31' E 140°02'3 6.9
2018-Jun-08 21:30N 35°31' E 139°59'0 0.3
2018-Jun-08 20:47N 35°31' E 139°59'0 0.0
2018-Jun-08 20:29N 35°31' E 139°59'0 0.0
2018-Jun-08 19:59N 35°31' E 139°59'0 0.0
2018-Jun-08 19:29N 35°31' E 139°59'0 0.0
2018-Jun-08 18:59N 35°31' E 139°59'0 0.0
2018-Jun-08 18:29N 35°31' E 139°59'0 0.0
2018-Jun-08 17:59N 35°31' E 139°59'0 0.0
2018-Jun-08 17:29N 35°31' E 139°59'2 4.3
2018-Jun-08 17:00N 35°30' E 139°57'714.6
2018-Jun-08 16:30N 35°27' E 139°49'713.2
2018-Jun-08 16:00N 35°21' E 139°45'612.1
2018-Jun-08 15:30N 35°15' E 139°47'714.2
2018-Jun-08 14:59N 35°08' E 139°46'714.4
2018-Jun-08 14:30N 35°02' E 139°41'  

Dump ship's entire track history